createdAt,value
2022-08-11T00:01:06.861Z,17.91
2022-08-11T00:03:43.104Z,17.40
2022-08-11T00:06:14.103Z,17.55
2022-08-11T00:08:42.497Z,17.84
2022-08-11T00:11:12.553Z,17.79
2022-08-11T00:13:45.431Z,17.72
2022-08-11T00:16:20.037Z,17.74
2022-08-11T00:18:53.743Z,17.71
2022-08-11T00:21:54.636Z,17.66
2022-08-11T00:24:10.696Z,17.61
2022-08-11T00:26:37.852Z,17.55
2022-08-11T00:29:12.267Z,17.51
2022-08-11T00:31:46.442Z,17.56
2022-08-11T00:34:15.829Z,17.43
2022-08-11T00:36:50.817Z,17.48
2022-08-11T00:39:21.151Z,17.47
2022-08-11T00:42:14.441Z,17.45
2022-08-11T00:45:09.835Z,17.41
2022-08-11T00:48:05.021Z,17.36
2022-08-11T00:50:45.342Z,17.40
2022-08-11T00:53:46.964Z,17.42
2022-08-11T00:57:36.915Z,17.30
2022-08-11T01:00:20.627Z,17.25
2022-08-11T01:03:13.417Z,17.16
2022-08-11T01:05:49.338Z,17.18
2022-08-11T01:08:47.606Z,17.18
2022-08-11T01:11:34.392Z,17.17
2022-08-11T01:14:36.293Z,17.18
2022-08-11T01:17:26.133Z,17.13
2022-08-11T01:20:46.117Z,17.10
2022-08-11T01:23:24.242Z,17.02
2022-08-11T01:26:18.282Z,16.93
2022-08-11T01:29:08.693Z,16.86
2022-08-11T01:31:41.716Z,16.79
2022-08-11T01:34:58.286Z,16.74
2022-08-11T01:37:47.810Z,16.67
2022-08-11T01:40:23.618Z,16.68
2022-08-11T01:43:28.626Z,16.55
2022-08-11T01:45:58.381Z,16.57
2022-08-11T01:48:28.478Z,16.60
2022-08-11T01:51:01.164Z,16.51
2022-08-11T01:53:40.063Z,16.52
2022-08-11T01:56:33.652Z,16.46
2022-08-11T01:59:18.919Z,16.34
2022-08-11T02:01:53.550Z,16.23
2022-08-11T02:04:36.135Z,16.24
2022-08-11T02:07:20.050Z,16.26
2022-08-11T02:10:22.305Z,16.26
2022-08-11T02:13:37.204Z,15.84
2022-08-11T02:16:13.603Z,16.22
2022-08-11T02:19:07.496Z,15.99
2022-08-11T02:22:09.456Z,16.08
2022-08-11T02:24:54.250Z,16.07
2022-08-11T02:27:27.233Z,15.98
2022-08-11T02:30:09.932Z,15.99
2022-08-11T02:33:06.646Z,15.84
2022-08-11T02:35:58.111Z,16.02
2022-08-11T02:38:28.323Z,15.97
2022-08-11T02:41:40.174Z,15.92
2022-08-11T02:44:07.595Z,15.91
2022-08-11T02:46:45.088Z,15.92
2022-08-11T02:49:44.891Z,15.89
2022-08-11T02:52:31.355Z,15.88
2022-08-11T02:55:55.691Z,15.94
2022-08-11T02:58:22.097Z,15.83
2022-08-11T03:01:09.083Z,15.81
2022-08-11T03:03:53.365Z,15.82
2022-08-11T03:06:23.143Z,15.79
2022-08-11T03:08:59.088Z,15.66
2022-08-11T03:12:14.121Z,15.62
2022-08-11T03:15:18.516Z,15.66
2022-08-11T03:18:17.018Z,15.62
2022-08-11T03:21:16.037Z,15.63
2022-08-11T03:24:06.696Z,15.52
2022-08-11T03:26:33.643Z,15.44
2022-08-11T03:29:40.869Z,15.42
2022-08-11T03:32:21.646Z,15.37
2022-08-11T03:34:52.034Z,15.50
2022-08-11T03:37:46.934Z,15.44
2022-08-11T03:40:59.305Z,15.46
2022-08-11T03:43:35.341Z,15.41
2022-08-11T03:46:12.314Z,15.41
2022-08-11T03:48:45.330Z,15.22
2022-08-11T03:51:22.312Z,15.24
2022-08-11T03:53:56.499Z,15.22
2022-08-11T03:56:42.062Z,15.30
2022-08-11T03:59:30.358Z,15.25
2022-08-11T04:01:57.422Z,15.24
2022-08-11T04:04:56.568Z,15.22
2022-08-11T04:07:45.619Z,15.24
2022-08-11T04:10:49.890Z,15.22
2022-08-11T04:13:35.607Z,15.19
2022-08-11T04:16:21.465Z,15.35
2022-08-11T04:19:11.052Z,15.26
2022-08-11T04:21:51.574Z,15.37
2022-08-11T04:24:39.494Z,15.30
2022-08-11T04:27:44.631Z,15.21
2022-08-11T04:30:45.840Z,15.30
2022-08-11T04:33:41.475Z,15.26
2022-08-11T04:36:43.475Z,15.28
2022-08-11T04:39:41.307Z,15.31
2022-08-11T04:42:39.751Z,15.25
2022-08-11T04:45:51.850Z,15.40
2022-08-11T04:48:55.953Z,15.47
2022-08-11T04:52:03.314Z,15.50
2022-08-11T04:55:27.031Z,15.56
2022-08-11T04:58:22.796Z,15.57
2022-08-11T05:01:40.203Z,15.60
2022-08-11T05:04:40.157Z,15.63
2022-08-11T05:07:19.301Z,15.60
2022-08-11T05:10:13.950Z,15.59
2022-08-11T05:12:43.638Z,15.69
2022-08-11T05:15:42.394Z,15.79
2022-08-11T05:18:41.347Z,15.75
2022-08-11T05:21:30.820Z,15.76
2022-08-11T05:24:38.908Z,16.03
2022-08-11T05:27:27.480Z,16.06
2022-08-11T05:30:34.490Z,16.15
2022-08-11T05:33:29.185Z,16.23
2022-08-11T05:36:17.845Z,16.38
2022-08-11T05:39:15.177Z,16.12
2022-08-11T05:42:01.477Z,16.59
2022-08-11T05:44:48.576Z,16.81
2022-08-11T05:47:45.239Z,16.89
2022-08-11T05:50:33.304Z,17.00
2022-08-11T05:53:21.275Z,17.21
2022-08-11T05:56:09.949Z,17.30
2022-08-11T05:58:42.972Z,16.85
2022-08-11T06:01:12.967Z,17.45
2022-08-11T06:04:14.043Z,17.36
2022-08-11T06:07:03.934Z,17.67
2022-08-11T06:09:34.041Z,17.75
2022-08-11T06:12:08.248Z,17.95
2022-08-11T06:14:43.004Z,18.07
2022-08-11T06:17:10.791Z,18.17
2022-08-11T06:19:42.650Z,18.32
2022-08-11T06:22:12.298Z,18.12
2022-08-11T06:24:50.901Z,18.69
2022-08-11T06:27:22.350Z,18.71
2022-08-11T06:29:55.047Z,18.56
2022-08-11T06:32:32.854Z,18.62
2022-08-11T06:35:23.569Z,19.15
2022-08-11T06:38:12.610Z,19.35
2022-08-11T06:41:19.679Z,19.51
2022-08-11T06:44:05.922Z,19.61
2022-08-11T06:46:38.736Z,19.79
2022-08-11T06:49:28.212Z,19.87
2022-08-11T06:52:01.648Z,20.00
2022-08-11T06:54:32.519Z,20.02
2022-08-11T06:57:29.734Z,20.19
2022-08-11T07:00:16.884Z,20.42
2022-08-11T07:02:54.542Z,20.47
2022-08-11T07:05:28.756Z,20.50
2022-08-11T07:09:02.049Z,20.27
2022-08-11T07:12:42.041Z,20.91
2022-08-11T07:16:13.231Z,21.27
2022-08-11T07:18:44.605Z,21.20
2022-08-11T07:22:01.017Z,21.75
2022-08-11T07:25:32.874Z,21.86
2022-08-11T07:28:28.116Z,22.04
2022-08-11T07:31:04.822Z,22.30
2022-08-11T07:34:08.270Z,22.54
2022-08-11T07:36:31.108Z,22.59
2022-08-11T07:38:59.593Z,22.82
2022-08-11T07:41:28.585Z,23.02
2022-08-11T07:44:08.867Z,23.11
2022-08-11T07:46:59.721Z,23.38
2022-08-11T07:49:49.840Z,23.64
2022-08-11T07:52:30.324Z,23.74
2022-08-11T07:55:06.059Z,23.96
2022-08-11T07:58:15.613Z,24.09
2022-08-11T08:01:22.459Z,24.30
2022-08-11T08:04:10.131Z,24.41
2022-08-11T08:06:57.550Z,24.43
2022-08-11T08:09:43.703Z,24.65
2022-08-11T08:12:30.696Z,24.36
2022-08-11T08:15:16.984Z,24.82
2022-08-11T08:18:10.026Z,24.84
2022-08-11T08:20:47.365Z,25.07
2022-08-11T08:23:15.082Z,24.83
2022-08-11T08:25:45.506Z,25.08
2022-08-11T08:28:19.599Z,25.04
2022-08-11T08:30:52.554Z,25.31
2022-08-11T08:33:24.830Z,25.43
2022-08-11T08:36:15.250Z,25.40
2022-08-11T08:38:46.990Z,25.56
2022-08-11T08:41:20.869Z,25.61
2022-08-11T08:43:53.584Z,25.74
2022-08-11T08:46:36.510Z,25.83
2022-08-11T08:49:04.804Z,25.95
2022-08-11T08:51:58.748Z,25.97
2022-08-11T08:54:37.045Z,26.04
2022-08-11T08:57:06.773Z,26.19
2022-08-11T08:59:47.388Z,26.05
2022-08-11T09:02:19.791Z,26.27
2022-08-11T09:05:03.746Z,26.31
2022-08-11T09:07:39.486Z,26.07
2022-08-11T09:10:10.695Z,26.43
2022-08-11T09:12:41.533Z,26.58
2022-08-11T09:15:11.809Z,26.66
2022-08-11T09:17:46.616Z,26.55
2022-08-11T09:20:24.592Z,26.44
2022-08-11T09:26:35.126Z,26.75
2022-08-11T09:29:04.564Z,26.82
2022-08-11T09:31:39.650Z,26.94
2022-08-11T09:34:10.217Z,26.83
2022-08-11T09:36:58.224Z,26.82
2022-08-11T09:39:45.819Z,26.88
2022-08-11T09:42:16.416Z,26.97
2022-08-11T09:44:50.651Z,26.95
2022-08-11T09:47:24.539Z,27.12
2022-08-11T09:49:56.115Z,27.01
2022-08-11T09:52:24.644Z,27.08
2022-08-11T09:54:53.368Z,26.94
2022-08-11T09:57:43.958Z,26.98
2022-08-11T10:00:14.367Z,26.86
2022-08-11T10:02:47.135Z,27.00
2022-08-11T10:05:38.034Z,27.10
2022-08-11T10:08:07.272Z,26.92
2022-08-11T10:10:36.755Z,27.23
2022-08-11T10:14:31.820Z,27.41
2022-08-11T10:16:15.647Z,27.22
2022-08-11T10:18:52.056Z,27.56
2022-08-11T10:22:16.485Z,27.59
2022-08-11T10:25:03.658Z,27.45
2022-08-11T10:27:40.367Z,27.69
2022-08-11T10:30:37.145Z,27.81
2022-08-11T10:33:36.737Z,27.83
2022-08-11T10:36:06.156Z,27.83
2022-08-11T10:38:46.911Z,27.81
2022-08-11T10:41:33.518Z,27.79
2022-08-11T10:44:04.043Z,27.96
2022-08-11T10:46:50.505Z,27.97
2022-08-11T10:49:20.274Z,27.93
2022-08-11T10:52:06.515Z,28.00
2022-08-11T10:54:54.559Z,27.80
2022-08-11T10:57:41.763Z,27.91
2022-08-11T11:00:15.080Z,27.98
2022-08-11T11:02:46.657Z,28.15
2022-08-11T11:05:34.893Z,28.07
2022-08-11T11:08:31.219Z,28.36
2022-08-11T11:10:59.435Z,28.65
2022-08-11T11:13:53.176Z,28.39
2022-08-11T11:16:42.686Z,28.56
2022-08-11T11:19:11.570Z,28.46
2022-08-11T11:21:39.513Z,28.49
2022-08-11T11:24:19.315Z,28.55
2022-08-11T11:26:55.910Z,28.67
2022-08-11T11:29:46.143Z,28.71
2022-08-11T11:32:13.178Z,28.52
2022-08-11T11:34:48.562Z,28.48
2022-08-11T11:37:23.743Z,28.58
2022-08-11T11:39:52.912Z,28.63
2022-08-11T11:42:21.830Z,28.81
2022-08-11T11:44:49.510Z,28.92
2022-08-11T11:47:21.771Z,28.96
2022-08-11T11:49:50.150Z,28.69
2022-08-11T11:52:20.357Z,28.99
2022-08-11T11:54:50.220Z,29.16
2022-08-11T11:57:38.621Z,29.25
2022-08-11T12:00:33.046Z,28.86
2022-08-11T12:03:08.212Z,29.05
2022-08-11T12:05:37.320Z,28.92
2022-08-11T12:08:15.925Z,29.35
2022-08-11T12:11:13.112Z,29.33
2022-08-11T12:13:42.081Z,29.54
2022-08-11T12:16:33.612Z,29.31
2022-08-11T12:19:16.941Z,29.12
2022-08-11T12:22:03.126Z,29.06
2022-08-11T12:24:51.252Z,29.22
2022-08-11T12:27:25.468Z,29.33
2022-08-11T12:29:55.811Z,29.22
2022-08-11T12:32:27.276Z,29.42
2022-08-11T12:34:56.691Z,29.46
2022-08-11T12:37:30.139Z,29.30
2022-08-11T12:40:43.660Z,29.71
2022-08-11T12:43:38.399Z,29.60
2022-08-11T12:46:31.765Z,29.99
2022-08-11T12:49:19.008Z,29.83
2022-08-11T12:52:14.799Z,29.81
2022-08-11T12:54:46.680Z,29.44
2022-08-11T12:57:46.055Z,29.81
2022-08-11T13:00:33.537Z,29.81
2022-08-11T13:03:20.466Z,29.83
2022-08-11T13:05:49.650Z,29.98
2022-08-11T13:08:18.202Z,29.90
2022-08-11T13:11:05.586Z,29.98
2022-08-11T13:13:53.954Z,29.65
2022-08-11T13:16:23.432Z,29.82
2022-08-11T13:18:53.438Z,29.48
2022-08-11T13:21:21.901Z,29.99
2022-08-11T13:24:01.473Z,29.88
2022-08-11T13:26:46.862Z,29.61
2022-08-11T13:29:25.651Z,29.95
2022-08-11T13:31:56.015Z,30.22
2022-08-11T13:34:25.293Z,29.56
2022-08-11T13:36:55.721Z,29.81
2022-08-11T13:39:32.115Z,29.84
2022-08-11T13:42:01.652Z,29.98
2022-08-11T13:44:31.454Z,30.03
2022-08-11T13:47:04.207Z,30.24
2022-08-11T13:49:34.828Z,30.32
2022-08-11T13:52:03.437Z,30.02
2022-08-11T13:54:34.843Z,30.21
2022-08-11T13:57:08.256Z,30.30
2022-08-11T13:59:43.853Z,30.03
2022-08-11T14:02:29.292Z,30.47
2022-08-11T14:05:25.029Z,30.48
2022-08-11T14:07:58.119Z,30.34
2022-08-11T14:10:30.063Z,30.13
2022-08-11T14:13:18.717Z,30.62
2022-08-11T14:15:48.472Z,30.38
2022-08-11T14:18:30.848Z,30.30
2022-08-11T14:21:19.285Z,30.55
2022-08-11T14:23:50.254Z,30.47
2022-08-11T14:26:29.450Z,30.35
2022-08-11T14:29:05.990Z,30.78
2022-08-11T14:31:35.693Z,30.87
2022-08-11T14:34:06.419Z,30.95
2022-08-11T14:36:39.757Z,30.57
2022-08-11T14:39:18.206Z,30.35
2022-08-11T14:42:14.825Z,30.10
2022-08-11T14:45:03.270Z,30.75
2022-08-11T14:47:35.264Z,30.61
2022-08-11T14:50:11.567Z,30.53
2022-08-11T14:52:45.017Z,30.32
2022-08-11T14:55:32.454Z,30.44
2022-08-11T14:58:01.644Z,30.23
2022-08-11T15:00:29.283Z,30.63
2022-08-11T15:03:12.927Z,30.67
2022-08-11T15:05:58.415Z,30.59
2022-08-11T15:08:47.642Z,30.67
2022-08-11T15:11:36.158Z,30.84
2022-08-11T15:14:06.624Z,30.90
2022-08-11T15:16:54.960Z,30.77
2022-08-11T15:19:24.971Z,30.94
2022-08-11T15:22:10.607Z,31.35
2022-08-11T15:24:38.307Z,31.00
2022-08-11T15:27:42.990Z,31.39
2022-08-11T15:30:33.081Z,31.62
2022-08-11T15:33:30.676Z,31.66
2022-08-11T15:36:18.922Z,31.87
2022-08-11T15:39:02.242Z,32.05
2022-08-11T15:42:12.478Z,32.29
2022-08-11T15:45:03.725Z,32.33
2022-08-11T15:47:38.983Z,32.80
2022-08-11T15:50:14.075Z,32.28
2022-08-11T15:52:49.493Z,32.60
2022-08-11T15:55:18.413Z,33.04
2022-08-11T15:58:18.324Z,32.98
2022-08-11T16:01:08.855Z,33.18
2022-08-11T16:04:09.818Z,34.17
2022-08-11T16:06:49.633Z,34.06
2022-08-11T16:10:07.613Z,34.46
2022-08-11T16:13:06.185Z,35.29
2022-08-11T16:15:56.867Z,34.83
2022-08-11T16:18:40.489Z,35.38
2022-08-11T16:21:33.917Z,35.91
2022-08-11T16:24:03.490Z,35.63
2022-08-11T16:27:07.523Z,35.44
2022-08-11T16:29:21.594Z,35.39
2022-08-11T16:32:11.388Z,35.76
2022-08-11T16:34:58.985Z,35.33
2022-08-11T16:37:46.269Z,35.11
2022-08-11T16:40:15.079Z,34.60
2022-08-11T16:43:10.480Z,34.90
2022-08-11T16:45:59.710Z,35.21
2022-08-11T16:48:38.939Z,35.35
2022-08-11T16:51:08.435Z,36.23
2022-08-11T16:53:59.664Z,36.06
2022-08-11T16:56:34.948Z,36.66
2022-08-11T16:59:17.681Z,35.58
2022-08-11T17:01:53.616Z,35.87
2022-08-11T17:04:48.902Z,36.49
2022-08-11T17:07:41.512Z,36.58
2022-08-11T17:11:04.115Z,36.55
2022-08-11T17:13:42.331Z,36.44
2022-08-11T17:16:12.720Z,36.68
2022-08-11T17:18:47.713Z,36.42
2022-08-11T17:21:27.325Z,35.94
2022-08-11T17:23:58.764Z,36.67
2022-08-11T17:26:59.395Z,36.08
2022-08-11T17:29:54.347Z,36.54
2022-08-11T17:32:56.768Z,36.08
2022-08-11T17:35:38.507Z,36.13
2022-08-11T17:38:10.099Z,35.92
2022-08-11T17:40:40.157Z,34.75
2022-08-11T17:43:27.945Z,33.02
2022-08-11T17:46:15.422Z,31.69
2022-08-11T17:48:47.793Z,30.59
2022-08-11T17:51:38.240Z,30.00
2022-08-11T17:54:26.363Z,29.75
2022-08-11T17:57:20.526Z,29.38
2022-08-11T17:59:54.105Z,29.22
2022-08-11T18:02:54.078Z,29.08
2022-08-11T18:05:35.803Z,29.05
2022-08-11T18:08:25.456Z,28.94
2022-08-11T18:11:12.717Z,28.70
2022-08-11T18:14:06.570Z,28.44
2022-08-11T18:16:52.238Z,28.54
2022-08-11T18:19:37.906Z,28.48
2022-08-11T18:22:46.647Z,28.20
2022-08-11T18:25:35.477Z,28.17
2022-08-11T18:28:25.337Z,28.04
2022-08-11T18:31:15.485Z,27.96
2022-08-11T18:34:10.846Z,27.70
2022-08-11T18:37:19.420Z,27.57
2022-08-11T18:40:20.856Z,27.59
2022-08-11T18:43:09.509Z,27.42
2022-08-11T18:46:06.939Z,27.31
2022-08-11T18:49:00.595Z,26.86
2022-08-11T18:51:47.079Z,26.95
2022-08-11T18:54:35.914Z,26.75
2022-08-11T18:57:25.435Z,26.53
2022-08-11T19:00:13.166Z,26.35
2022-08-11T19:02:59.836Z,26.25
2022-08-11T19:06:37.009Z,26.14
2022-08-11T19:09:05.019Z,25.98
2022-08-11T19:11:53.314Z,25.81
2022-08-11T19:14:40.545Z,25.65
2022-08-11T19:17:44.173Z,25.52
2022-08-11T19:20:37.930Z,25.42
2022-08-11T19:23:25.703Z,25.17
2022-08-11T19:26:12.225Z,25.02
2022-08-11T19:29:00.262Z,24.92
2022-08-11T19:31:47.436Z,24.89
2022-08-11T19:34:36.265Z,24.84
2022-08-11T19:37:25.421Z,24.85
2022-08-11T19:40:13.569Z,24.73
2022-08-11T19:43:02.343Z,24.70
2022-08-11T19:45:52.181Z,24.55
2022-08-11T19:48:40.794Z,24.47
2022-08-11T19:51:28.606Z,24.54
2022-08-11T19:54:15.330Z,24.60
2022-08-11T19:57:03.195Z,24.46
2022-08-11T19:59:50.667Z,24.43
2022-08-11T20:02:39.266Z,24.32
2022-08-11T20:05:26.319Z,24.34
2022-08-11T20:08:14.733Z,24.12
2022-08-11T20:11:03.604Z,24.06
2022-08-11T20:13:50.220Z,23.94
2022-08-11T20:16:38.898Z,23.94
2022-08-11T20:19:54.949Z,23.80
2022-08-11T20:22:34.748Z,23.71
2022-08-11T20:25:23.890Z,23.58
2022-08-11T20:28:12.205Z,23.38
2022-08-11T20:31:02.158Z,23.03
2022-08-11T20:33:49.290Z,22.84
2022-08-11T20:36:35.619Z,23.17
2022-08-11T20:39:22.280Z,23.03
2022-08-11T20:42:09.762Z,23.03
2022-08-11T20:44:57.953Z,22.88
2022-08-11T20:47:59.340Z,22.58
2022-08-11T20:50:47.593Z,22.72
2022-08-11T20:53:39.131Z,22.69
2022-08-11T20:56:28.468Z,22.57
2022-08-11T20:59:21.567Z,22.49
2022-08-11T21:02:10.539Z,22.16
2022-08-11T21:05:00.330Z,22.26
2022-08-11T21:07:56.761Z,22.14
2022-08-11T21:10:50.579Z,21.90
2022-08-11T21:13:41.563Z,22.04
2022-08-11T21:16:32.096Z,21.97
2022-08-11T21:19:59.984Z,21.87
2022-08-11T21:22:59.129Z,21.83
2022-08-11T21:26:02.102Z,21.75
2022-08-11T21:28:50.229Z,21.66
2022-08-11T21:31:37.486Z,21.44
2022-08-11T21:34:24.836Z,21.35
2022-08-11T21:37:11.622Z,21.28
2022-08-11T21:40:00.637Z,21.29
2022-08-11T21:42:47.673Z,21.18
2022-08-11T21:45:35.431Z,20.99
2022-08-11T21:48:23.303Z,20.44
2022-08-11T21:51:09.042Z,20.81
2022-08-11T21:53:55.751Z,20.91
2022-08-11T21:56:45.110Z,20.65
2022-08-11T21:59:35.370Z,20.58
2022-08-11T22:02:21.502Z,20.50
2022-08-11T22:05:07.550Z,20.57
2022-08-11T22:07:52.916Z,20.46
2022-08-11T22:10:42.297Z,20.43
2022-08-11T22:13:31.884Z,20.25
2022-08-11T22:16:18.764Z,20.17
2022-08-11T22:19:06.168Z,20.23
2022-08-11T22:22:01.397Z,20.15
2022-08-11T22:24:51.661Z,19.99
2022-08-11T22:27:38.585Z,19.88
2022-08-11T22:30:30.006Z,19.92
2022-08-11T22:33:24.449Z,19.76
2022-08-11T22:36:13.955Z,19.63
2022-08-11T22:39:01.141Z,19.45
2022-08-11T22:41:47.473Z,19.41
2022-08-11T22:44:33.058Z,19.40
2022-08-11T22:47:21.295Z,19.28
2022-08-11T22:50:15.789Z,19.26
2022-08-11T22:53:02.613Z,19.17
2022-08-11T22:55:48.849Z,18.71
2022-08-11T22:58:36.036Z,18.98
2022-08-11T23:01:22.270Z,18.86
2022-08-11T23:04:08.240Z,18.78
2022-08-11T23:06:54.382Z,18.62
2022-08-11T23:09:42.605Z,18.67
2022-08-11T23:12:28.333Z,18.66
2022-08-11T23:15:14.225Z,18.13
2022-08-11T23:18:00.464Z,18.54
2022-08-11T23:20:55.102Z,18.47
2022-08-11T23:23:42.449Z,18.40
2022-08-11T23:26:30.060Z,18.29
2022-08-11T23:29:16.651Z,18.34
2022-08-11T23:32:04.701Z,18.28
2022-08-11T23:35:04.136Z,17.88
2022-08-11T23:38:02.885Z,18.34
2022-08-11T23:40:48.582Z,18.23
2022-08-11T23:43:42.398Z,18.14
2022-08-11T23:46:28.502Z,18.19
2022-08-11T23:49:17.186Z,18.05
2022-08-11T23:52:03.810Z,17.76
2022-08-11T23:54:50.567Z,17.65
2022-08-11T23:57:36.982Z,17.96
